createdAt,value
2019-02-27T00:01:03.590Z,97329.01
2019-02-27T00:02:07.342Z,97326.13
2019-02-27T00:03:11.092Z,97324.66
2019-02-27T00:04:14.738Z,97322.27
2019-02-27T00:05:18.466Z,97324.91
2019-02-27T00:06:22.213Z,97322.53
2019-02-27T00:07:25.948Z,97324.72
2019-02-27T00:08:29.585Z,97321.28
2019-02-27T00:09:33.440Z,97321.80
2019-02-27T00:10:39.262Z,97321.80
2019-02-27T00:11:45.862Z,97317.75
2019-02-27T00:12:51.770Z,97321.28
2019-02-27T00:13:57.651Z,97316.60
2019-02-27T00:15:02.112Z,97323.17
2019-02-27T00:16:04.972Z,97321.28
2019-02-27T00:17:08.617Z,97326.06
2019-02-27T00:18:12.727Z,97323.23
2019-02-27T00:19:16.728Z,97328.89
2019-02-27T00:20:20.375Z,97320.84
2019-02-27T00:21:24.048Z,97320.21
2019-02-27T00:22:27.699Z,97316.82
2019-02-27T00:23:31.373Z,97324.56
2019-02-27T00:24:35.073Z,97322.17
2019-02-27T00:25:38.720Z,97321.39
2019-02-27T00:26:43.073Z,97327.08
2019-02-27T00:27:49.144Z,97324.69
2019-02-27T00:28:55.983Z,97322.56
2019-02-27T00:29:59.463Z,97326.33
2019-02-27T00:31:02.999Z,97329.53
2019-02-27T00:32:07.025Z,97330.37
2019-02-27T00:33:10.620Z,97326.08
2019-02-27T00:34:14.281Z,97329.58
2019-02-27T00:35:17.942Z,97335.47
2019-02-27T00:36:21.586Z,97331.95
2019-02-27T00:37:25.233Z,97339.98
2019-02-27T00:38:28.875Z,97341.05
2019-02-27T00:39:32.556Z,97336.54
2019-02-27T00:40:39.359Z,97336.80
2019-02-27T00:41:45.708Z,97336.48
2019-02-27T00:42:47.710Z,97336.80
2019-02-27T00:43:51.352Z,97340.57
2019-02-27T00:44:55.025Z,97335.00
2019-02-27T00:45:58.589Z,97339.86
2019-02-27T00:47:02.224Z,97346.24
2019-02-27T00:48:05.872Z,97337.75
2019-02-27T00:49:09.526Z,97335.14
2019-02-27T00:50:13.242Z,97339.65
2019-02-27T00:51:16.894Z,97338.81
2019-02-27T00:52:20.466Z,97335.78
2019-02-27T00:53:24.437Z,97336.91
2019-02-27T00:54:29.005Z,97339.86
2019-02-27T00:55:38.450Z,97343.59
2019-02-27T00:56:44.841Z,97338.53
2019-02-27T00:57:45.744Z,97340.93
2019-02-27T00:58:49.386Z,97334.55
2019-02-27T00:59:53.119Z,97339.91
2019-02-27T01:00:56.805Z,97336.83
2019-02-27T01:02:00.457Z,97341.33
2019-02-27T01:03:04.104Z,97342.08
2019-02-27T01:04:07.814Z,97340.50
2019-02-27T01:05:11.943Z,97345.67
2019-02-27T01:06:15.604Z,97336.16
2019-02-27T01:07:20.742Z,97342.09
2019-02-27T01:08:25.093Z,97342.36
2019-02-27T01:09:29.993Z,97352.80
2019-02-27T01:10:33.640Z,97344.84
2019-02-27T01:11:37.393Z,97346.73
2019-02-27T01:12:41.241Z,97347.05
2019-02-27T01:13:44.882Z,97343.94
2019-02-27T01:14:48.529Z,97347.87
2019-02-27T01:15:52.171Z,97344.92
2019-02-27T01:16:55.844Z,97338.33
2019-02-27T01:17:59.491Z,97341.73
2019-02-27T01:19:04.756Z,97336.95
2019-02-27T01:20:12.687Z,97333.28
2019-02-27T01:21:19.261Z,97327.97
2019-02-27T01:22:21.788Z,97323.73
2019-02-27T01:23:25.415Z,97325.94
2019-02-27T01:24:29.056Z,97321.47
2019-02-27T01:25:33.042Z,97318.89
2019-02-27T01:26:36.688Z,97316.47
2019-02-27T01:27:40.296Z,97318.55
2019-02-27T01:28:45.477Z,97318.73
2019-02-27T01:29:51.581Z,97317.63
2019-02-27T01:30:54.641Z,97316.04
2019-02-27T01:31:58.322Z,97312.55
2019-02-27T01:33:04.201Z,97304.77
2019-02-27T01:34:11.163Z,97301.83
2019-02-27T01:35:17.520Z,97307.36
2019-02-27T01:36:21.767Z,97303.91
2019-02-27T01:37:24.975Z,97300.19
2019-02-27T01:38:28.665Z,97297.76
2019-02-27T01:39:32.314Z,97296.11
2019-02-27T01:40:35.953Z,97295.33
2019-02-27T01:41:39.914Z,97294.03
2019-02-27T01:42:43.559Z,97294.05
2019-02-27T01:43:47.232Z,97290.59
2019-02-27T01:44:50.965Z,97285.28
2019-02-27T01:45:55.018Z,97285.33
2019-02-27T01:47:01.537Z,97282.41
2019-02-27T01:48:04.125Z,97285.64
2019-02-27T01:49:07.779Z,97279.10
2019-02-27T01:50:34.931Z,97280.70
2019-02-27T01:51:38.567Z,97275.97
2019-02-27T01:52:42.209Z,97282.03
2019-02-27T01:53:45.845Z,97286.58
2019-02-27T01:54:49.618Z,97278.98
2019-02-27T01:55:56.247Z,97284.71
2019-02-27T01:57:02.496Z,97289.75
2019-02-27T01:58:04.326Z,97289.00
2019-02-27T01:59:07.976Z,97287.41
2019-02-27T02:00:11.756Z,97285.89
2019-02-27T02:01:15.406Z,97285.63
2019-02-27T02:02:19.366Z,97287.48
2019-02-27T02:03:23.033Z,97277.75
2019-02-27T02:04:26.656Z,97280.63
2019-02-27T02:05:31.368Z,97285.63
2019-02-27T02:06:35.003Z,97281.16
2019-02-27T02:07:40.288Z,97280.43
2019-02-27T02:08:47.928Z,97278.38
2019-02-27T02:09:49.376Z,97278.31
2019-02-27T02:10:56.079Z,97275.62
2019-02-27T02:12:11.403Z,97271.12
2019-02-27T02:13:18.440Z,97269.72
2019-02-27T02:14:40.015Z,97273.62
2019-02-27T02:16:10.699Z,97268.53
2019-02-27T02:17:20.045Z,97272.02
2019-02-27T02:18:29.434Z,97268.55
2019-02-27T02:19:35.992Z,97260.84
2019-02-27T02:21:00.896Z,97268.45
2019-02-27T02:22:11.306Z,97264.43
2019-02-27T02:23:33.148Z,97273.01
2019-02-27T02:25:00.561Z,97266.63
2019-02-27T02:26:16.091Z,97277.41
2019-02-27T02:27:22.684Z,97282.72
2019-02-27T02:28:48.218Z,97288.03
2019-02-27T02:30:16.917Z,97288.05
2019-02-27T02:31:32.525Z,97292.27
2019-02-27T02:32:55.565Z,97290.52
2019-02-27T02:34:24.762Z,97290.03
2019-02-27T02:35:34.220Z,97291.53
2019-02-27T02:36:46.561Z,97296.63
2019-02-27T02:38:12.334Z,97300.91
2019-02-27T02:39:31.399Z,97305.47
2019-02-27T02:40:54.438Z,97297.55
2019-02-27T02:42:06.718Z,97298.91
2019-02-27T02:43:41.641Z,97300.73
2019-02-27T02:45:02.659Z,97300.20
2019-02-27T02:46:12.223Z,97299.41
2019-02-27T02:47:27.737Z,97296.22
2019-02-27T02:48:56.899Z,97308.88
2019-02-27T02:50:18.474Z,97300.66
2019-02-27T02:51:34.233Z,97299.85
2019-02-27T02:52:46.600Z,97312.09
2019-02-27T02:54:08.230Z,97310.55
2019-02-27T02:55:23.985Z,97311.08
2019-02-27T02:56:36.167Z,97317.45
2019-02-27T02:57:57.738Z,97318.73
2019-02-27T02:59:36.321Z,97331.13
2019-02-27T03:00:42.881Z,97327.41
2019-02-27T03:01:50.220Z,97326.91
2019-02-27T03:03:11.271Z,97333.02
2019-02-27T03:04:51.440Z,97330.64
2019-02-27T03:06:17.661Z,97333.25
2019-02-27T03:07:35.614Z,97334.30
2019-02-27T03:08:47.934Z,97339.34
2019-02-27T03:09:57.135Z,97332.32
2019-02-27T03:11:19.139Z,97339.80
2019-02-27T03:12:30.959Z,97331.88
2019-02-27T03:13:41.511Z,97329.97
2019-02-27T03:15:18.619Z,97338.42
2019-02-27T03:16:41.067Z,97342.48
2019-02-27T03:17:55.120Z,97343.38
2019-02-27T03:19:06.262Z,97348.18
2019-02-27T03:20:32.818Z,97353.19
2019-02-27T03:21:51.454Z,97357.58
2019-02-27T03:23:26.582Z,97366.06
2019-02-27T03:24:49.893Z,97356.82
2019-02-27T03:26:05.579Z,97361.37
2019-02-27T03:27:14.895Z,97364.30
2019-02-27T03:28:21.442Z,97364.67
2019-02-27T03:29:39.767Z,97363.91
2019-02-27T03:30:58.114Z,97364.94
2019-02-27T03:32:10.533Z,97361.22
2019-02-27T03:33:32.065Z,97361.45
2019-02-27T03:34:51.475Z,97370.77
2019-02-27T03:36:04.454Z,97361.79
2019-02-27T03:37:23.297Z,97358.05
2019-02-27T03:39:01.674Z,97365.66
2019-02-27T03:40:45.099Z,97368.58
2019-02-27T03:42:12.811Z,97370.77
2019-02-27T03:43:31.371Z,97368.26
2019-02-27T03:44:40.795Z,97378.10
2019-02-27T03:46:06.284Z,97366.97
2019-02-27T03:47:17.075Z,97375.12
2019-02-27T03:48:49.664Z,97375.98
2019-02-27T03:49:58.983Z,97380.25
2019-02-27T03:51:37.382Z,97381.05
2019-02-27T03:52:52.657Z,97377.90
2019-02-27T03:54:20.879Z,97383.64
2019-02-27T03:55:32.893Z,97378.87
2019-02-27T03:57:01.002Z,97382.02
2019-02-27T03:58:16.463Z,97388.38
2019-02-27T03:59:34.640Z,97387.68
2019-02-27T04:01:02.725Z,97392.48
2019-02-27T04:02:23.803Z,97396.75
2019-02-27T04:03:30.359Z,97387.23
2019-02-27T04:04:45.596Z,97389.91
2019-02-27T04:06:19.640Z,97391.28
2019-02-27T04:07:31.895Z,97396.58
2019-02-27T04:08:56.711Z,97392.86
2019-02-27T04:10:00.380Z,97398.42
2019-02-27T04:11:05.887Z,97391.50
2019-02-27T04:12:09.437Z,97390.67
2019-02-27T04:13:13.076Z,97394.13
2019-02-27T04:14:30.616Z,97385.61
2019-02-27T04:15:34.428Z,97389.30
2019-02-27T04:16:38.272Z,97391.69
2019-02-27T04:17:40.733Z,97385.64
2019-02-27T04:18:44.367Z,97393.38
2019-02-27T04:19:48.009Z,97396.56
2019-02-27T04:20:51.653Z,97389.89
2019-02-27T04:22:00.479Z,97399.14
2019-02-27T04:23:01.385Z,97398.87
2019-02-27T04:24:05.022Z,97397.62
2019-02-27T04:25:09.079Z,97395.80
2019-02-27T04:26:13.103Z,97406.45
2019-02-27T04:27:20.035Z,97410.16
2019-02-27T04:28:22.150Z,97408.81
2019-02-27T04:29:25.779Z,97406.94
2019-02-27T04:30:29.459Z,97402.36
2019-02-27T04:31:33.153Z,97404.48
2019-02-27T04:32:36.801Z,97406.10
2019-02-27T04:33:40.540Z,97403.73
2019-02-27T04:34:44.180Z,97405.38
2019-02-27T04:35:47.811Z,97402.45
2019-02-27T04:36:51.459Z,97406.91
2019-02-27T04:37:55.103Z,97411.73
2019-02-27T04:39:01.875Z,97404.03
2019-02-27T04:40:06.035Z,97395.50
2019-02-27T04:41:09.663Z,97402.61
2019-02-27T04:42:13.315Z,97401.58
2019-02-27T04:43:16.949Z,97400.80
2019-02-27T04:44:20.637Z,97395.53
2019-02-27T04:45:24.668Z,97395.54
2019-02-27T04:46:28.313Z,97399.81
2019-02-27T04:47:31.934Z,97397.92
2019-02-27T04:48:35.620Z,97394.75
2019-02-27T04:49:39.310Z,97392.31
2019-02-27T04:50:44.163Z,97400.22
2019-02-27T04:51:50.610Z,97398.10
2019-02-27T04:52:57.751Z,97393.56
2019-02-27T04:53:59.145Z,97406.06
2019-02-27T04:55:03.123Z,97403.45
2019-02-27T04:56:06.762Z,97405.81
2019-02-27T04:57:10.449Z,97403.77
2019-02-27T04:58:14.099Z,97401.42
2019-02-27T04:59:18.773Z,97406.97
2019-02-27T05:00:26.099Z,97410.71
2019-02-27T05:01:28.382Z,97417.59
2019-02-27T05:02:32.402Z,97406.94
2019-02-27T05:03:36.033Z,97415.17
2019-02-27T05:04:39.667Z,97417.50
2019-02-27T05:05:43.335Z,97413.77
2019-02-27T05:06:47.780Z,97411.12
2019-02-27T05:07:54.131Z,97418.25
2019-02-27T05:08:59.786Z,97408.71
2019-02-27T05:10:02.283Z,97405.52
2019-02-27T05:11:05.972Z,97415.36
2019-02-27T05:12:09.616Z,97416.97
2019-02-27T05:13:13.259Z,97415.14
2019-02-27T05:14:16.896Z,97422.31
2019-02-27T05:15:20.540Z,97419.15
2019-02-27T05:16:24.142Z,97425.50
2019-02-27T05:17:27.780Z,97417.31
2019-02-27T05:18:31.426Z,97425.82
2019-02-27T05:19:37.242Z,97430.84
2019-02-27T05:20:44.800Z,97429.52
2019-02-27T05:21:45.816Z,97432.73
2019-02-27T05:22:49.456Z,97432.73
2019-02-27T05:23:53.028Z,97436.16
2019-02-27T05:24:57.011Z,97437.23
2019-02-27T05:26:00.659Z,97435.91
2019-02-27T05:27:04.341Z,97435.08
2019-02-27T05:28:07.978Z,97442.47
2019-02-27T05:29:11.614Z,97445.65
2019-02-27T05:30:15.545Z,97441.98
2019-02-27T05:31:19.222Z,97441.96
2019-02-27T05:32:25.315Z,97452.03
2019-02-27T05:33:28.675Z,97450.45
2019-02-27T05:34:32.477Z,97455.22
2019-02-27T05:35:36.445Z,97451.25
2019-02-27T05:36:40.091Z,97457.84
2019-02-27T05:37:44.262Z,97455.17
2019-02-27T05:38:47.962Z,97461.02
2019-02-27T05:39:51.785Z,97458.39
2019-02-27T05:40:59.875Z,97458.92
2019-02-27T05:42:00.985Z,97462.59
2019-02-27T05:43:04.703Z,97459.41
2019-02-27T05:44:08.352Z,97462.30
2019-02-27T05:45:12.669Z,97454.35
2019-02-27T05:46:16.379Z,97461.46
2019-02-27T05:47:20.073Z,97469.13
2019-02-27T05:48:23.715Z,97463.05
2019-02-27T05:49:27.542Z,97466.77
2019-02-27T05:50:33.982Z,97471.01
2019-02-27T05:51:36.984Z,97477.92
2019-02-27T05:52:40.659Z,97476.12
2019-02-27T05:53:47.684Z,97474.01
2019-02-27T05:54:51.322Z,97476.13
2019-02-27T05:55:54.969Z,97484.33
2019-02-27T05:56:58.673Z,97484.32
2019-02-27T05:58:02.732Z,97486.72
2019-02-27T05:59:06.385Z,97482.75
2019-02-27T06:00:15.975Z,97481.69
2019-02-27T06:01:19.619Z,97487.23
2019-02-27T06:02:23.270Z,97486.44
2019-02-27T06:03:26.951Z,97491.23
2019-02-27T06:04:30.600Z,97501.28
2019-02-27T06:05:36.011Z,97490.66
2019-02-27T06:06:39.683Z,97494.36
2019-02-27T06:07:43.323Z,97489.56
2019-02-27T06:08:47.016Z,97489.58
2019-02-27T06:09:50.716Z,97490.64
2019-02-27T06:10:55.993Z,97493.28
2019-02-27T06:11:59.900Z,97498.03
2019-02-27T06:13:03.633Z,97498.55
2019-02-27T06:14:07.305Z,97491.13
2019-02-27T06:15:18.793Z,97490.85
2019-02-27T06:16:22.444Z,97493.23
2019-02-27T06:17:27.735Z,97495.12
2019-02-27T06:18:31.335Z,97504.91
2019-02-27T06:19:37.266Z,97507.28
2019-02-27T06:20:42.760Z,97505.91
2019-02-27T06:21:46.712Z,97503.77
2019-02-27T06:22:50.302Z,97505.09
2019-02-27T06:23:53.941Z,97501.14
2019-02-27T06:24:57.549Z,97508.05
2019-02-27T06:26:02.631Z,97511.78
2019-02-27T06:27:06.923Z,97506.98
2019-02-27T06:28:13.674Z,97508.30
2019-02-27T06:29:17.323Z,97509.37
2019-02-27T06:30:21.661Z,97509.94
2019-02-27T06:31:25.310Z,97511.24
2019-02-27T06:32:33.300Z,97507.22
2019-02-27T06:33:37.608Z,97515.39
2019-02-27T06:34:41.251Z,97512.72
2019-02-27T06:35:45.114Z,97516.37
2019-02-27T06:36:48.766Z,97517.92
2019-02-27T06:37:52.405Z,97522.91
2019-02-27T06:39:00.139Z,97530.30
2019-02-27T06:40:01.383Z,97527.36
2019-02-27T06:41:05.026Z,97525.77
2019-02-27T06:42:08.733Z,97528.09
2019-02-27T06:43:12.393Z,97530.77
2019-02-27T06:44:16.127Z,97533.16
2019-02-27T06:45:19.785Z,97536.52
2019-02-27T06:46:23.483Z,97537.61
2019-02-27T06:47:27.161Z,97536.55
2019-02-27T06:48:30.817Z,97541.56
2019-02-27T06:49:34.487Z,97545.55
2019-02-27T06:50:38.137Z,97543.98
2019-02-27T06:51:41.781Z,97546.87
2019-02-27T06:52:45.434Z,97548.66
2019-02-27T06:53:48.946Z,97545.20
2019-02-27T06:54:52.933Z,97539.86
2019-02-27T06:55:56.701Z,97545.66
2019-02-27T06:57:00.337Z,97548.47
2019-02-27T06:58:04.210Z,97545.20
2019-02-27T06:59:08.157Z,97550.47
2019-02-27T07:00:17.648Z,97555.95
2019-02-27T07:01:21.309Z,97549.42
2019-02-27T07:02:24.944Z,97546.89
2019-02-27T07:03:29.519Z,97550.82
2019-02-27T07:04:39.204Z,97539.02
2019-02-27T07:05:39.312Z,97547.52
2019-02-27T07:06:42.987Z,97546.39
2019-02-27T07:07:46.618Z,97544.75
2019-02-27T07:08:50.258Z,97551.80
2019-02-27T07:09:53.891Z,97554.70
2019-02-27T07:11:09.946Z,97549.81
2019-02-27T07:12:03.314Z,97549.22
2019-02-27T07:13:06.959Z,97554.67
2019-02-27T07:14:10.597Z,97557.88
2019-02-27T07:15:18.828Z,97557.79
2019-02-27T07:16:22.899Z,97556.47
2019-02-27T07:17:29.225Z,97557.19
2019-02-27T07:18:32.803Z,97564.80
2019-02-27T07:19:36.440Z,97566.44
2019-02-27T07:20:40.070Z,97569.58
2019-02-27T07:21:43.705Z,97567.09
2019-02-27T07:22:47.409Z,97568.24
2019-02-27T07:23:51.047Z,97565.77
2019-02-27T07:24:54.684Z,97569.77
2019-02-27T07:25:58.329Z,97572.17
2019-02-27T07:27:02.318Z,97571.52
2019-02-27T07:28:08.170Z,97566.42
2019-02-27T07:29:21.119Z,97568.70
2019-02-27T07:30:23.814Z,97563.08
2019-02-27T07:31:27.708Z,97564.28
2019-02-27T07:32:32.112Z,97564.48
2019-02-27T07:33:37.986Z,97566.59
2019-02-27T07:34:41.158Z,97566.59
2019-02-27T07:35:44.793Z,97564.25
2019-02-27T07:36:48.413Z,97565.81
2019-02-27T07:37:52.059Z,97561.58
2019-02-27T07:38:57.656Z,97563.45
2019-02-27T07:40:01.103Z,97563.69
2019-02-27T07:41:04.727Z,97569.42
2019-02-27T07:42:08.364Z,97567.64
2019-02-27T07:43:12.057Z,97564.35
2019-02-27T07:44:15.696Z,97569.34
2019-02-27T07:45:22.576Z,97567.53
2019-02-27T07:46:26.155Z,97564.47
2019-02-27T07:47:30.132Z,97574.68
2019-02-27T07:48:33.768Z,97569.77
2019-02-27T07:49:37.430Z,97577.44
2019-02-27T07:50:41.409Z,97571.27
2019-02-27T07:51:45.045Z,97572.52
2019-02-27T07:52:49.066Z,97577.45
2019-02-27T07:53:53.814Z,97577.33
2019-02-27T07:54:58.506Z,97575.17
2019-02-27T07:56:02.609Z,97581.25
2019-02-27T07:57:06.528Z,97575.56
2019-02-27T07:58:10.159Z,97571.91
2019-02-27T07:59:13.712Z,97576.42
2019-02-27T08:00:19.164Z,97577.41
2019-02-27T08:01:23.511Z,97581.09
2019-02-27T08:02:27.907Z,97583.98
2019-02-27T08:03:31.535Z,97578.84
2019-02-27T08:04:35.082Z,97584.30
2019-02-27T08:05:38.740Z,97589.67
2019-02-27T08:06:42.384Z,97590.88
2019-02-27T08:07:48.676Z,97583.98
2019-02-27T08:08:51.365Z,97590.19
2019-02-27T08:09:56.437Z,97592.09
2019-02-27T08:11:00.105Z,97592.05
2019-02-27T08:12:03.742Z,97593.99
2019-02-27T08:13:07.453Z,97587.98
2019-02-27T08:14:12.876Z,97587.67
2019-02-27T08:15:18.051Z,97588.45
2019-02-27T08:16:22.631Z,97594.77
2019-02-27T08:17:26.498Z,97592.61
2019-02-27T08:18:33.574Z,97593.59
2019-02-27T08:19:35.586Z,97603.55
2019-02-27T08:20:39.230Z,97599.03
2019-02-27T08:21:42.890Z,97597.51
2019-02-27T08:22:46.518Z,97593.44
2019-02-27T08:23:50.146Z,97597.27
2019-02-27T08:24:53.783Z,97596.84
2019-02-27T08:25:57.423Z,97598.94
2019-02-27T08:27:01.095Z,97596.84
2019-02-27T08:28:04.725Z,97599.91
2019-02-27T08:29:08.366Z,97598.94
2019-02-27T08:30:22.636Z,97596.12
2019-02-27T08:31:28.259Z,97598.39
2019-02-27T08:32:34.499Z,97596.62
2019-02-27T08:33:37.398Z,97599.13
2019-02-27T08:34:41.144Z,97606.34
2019-02-27T08:35:44.775Z,97603.52
2019-02-27T08:36:48.413Z,97602.64
2019-02-27T08:38:01.907Z,97597.48
2019-02-27T08:38:57.471Z,97603.13
2019-02-27T08:40:01.383Z,97607.86
2019-02-27T08:41:05.011Z,97603.69
2019-02-27T08:42:08.961Z,97598.89
2019-02-27T08:43:12.628Z,97598.14
2019-02-27T08:44:16.263Z,97600.34
2019-02-27T08:45:20.853Z,97597.42
2019-02-27T08:46:24.500Z,97607.63
2019-02-27T08:47:28.126Z,97612.75
2019-02-27T08:48:31.788Z,97611.41
2019-02-27T08:49:35.406Z,97608.31
2019-02-27T08:50:39.043Z,97611.41
2019-02-27T08:51:42.745Z,97608.23
2019-02-27T08:52:50.568Z,97610.66
2019-02-27T08:53:51.822Z,97613.78
2019-02-27T08:54:56.119Z,97617.73
2019-02-27T08:55:59.743Z,97617.01
2019-02-27T08:57:03.387Z,97618.44
2019-02-27T08:58:07.271Z,97612.07
2019-02-27T08:59:11.396Z,97612.61
2019-02-27T09:00:17.942Z,97614.67
2019-02-27T09:01:22.330Z,97616.92
2019-02-27T09:02:29.212Z,97620.52
2019-02-27T09:03:36.160Z,97619.77
2019-02-27T09:04:36.836Z,97621.85
2019-02-27T09:05:40.467Z,97612.28
2019-02-27T09:06:44.102Z,97616.50
2019-02-27T09:07:47.838Z,97611.73
2019-02-27T09:08:51.466Z,97616.94
2019-02-27T09:09:55.276Z,97618.23
2019-02-27T09:10:58.958Z,97615.94
2019-02-27T09:12:03.177Z,97617.95
2019-02-27T09:13:06.923Z,97616.58
2019-02-27T09:14:12.030Z,97616.67
2019-02-27T09:15:15.897Z,97617.03
2019-02-27T09:16:19.538Z,97621.85
2019-02-27T09:17:26.848Z,97606.00
2019-02-27T09:18:29.275Z,97619.91
2019-02-27T09:19:32.909Z,97617.47
2019-02-27T09:20:36.592Z,97621.19
2019-02-27T09:21:40.231Z,97624.82
2019-02-27T09:22:43.867Z,97624.27
2019-02-27T09:23:47.518Z,97625.88
2019-02-27T09:24:51.149Z,97630.53
2019-02-27T09:25:57.256Z,97629.47
2019-02-27T09:27:00.215Z,97623.04
2019-02-27T09:28:09.030Z,97634.88
2019-02-27T09:29:09.319Z,97629.11
2019-02-27T09:30:18.373Z,97629.41
2019-02-27T09:31:22.041Z,97632.17
2019-02-27T09:32:25.678Z,97632.73
2019-02-27T09:33:38.354Z,97637.55
2019-02-27T09:34:34.958Z,97632.70
2019-02-27T09:35:38.867Z,97632.77
2019-02-27T09:36:43.267Z,97627.59
2019-02-27T09:37:48.256Z,97631.19
2019-02-27T09:38:57.378Z,97635.33
2019-02-27T09:39:58.629Z,97636.22
2019-02-27T09:41:02.603Z,97633.66
2019-02-27T09:42:06.277Z,97642.78
2019-02-27T09:43:09.969Z,97629.18
2019-02-27T09:44:14.422Z,97632.52
2019-02-27T09:45:35.222Z,97637.34
2019-02-27T09:46:39.156Z,97633.79
2019-02-27T09:47:42.831Z,97642.31
2019-02-27T09:48:46.464Z,97637.50
2019-02-27T09:49:50.093Z,97637.53
2019-02-27T09:50:53.736Z,97635.25
2019-02-27T09:51:57.288Z,97625.22
2019-02-27T09:53:03.297Z,97629.16
2019-02-27T09:54:08.112Z,97634.02
2019-02-27T09:55:12.699Z,97634.45
2019-02-27T09:56:16.331Z,97634.52
2019-02-27T09:57:19.971Z,97634.59
2019-02-27T09:58:23.686Z,97637.97
2019-02-27T09:59:27.275Z,97639.52
2019-02-27T10:00:36.304Z,97627.74
2019-02-27T10:01:39.940Z,97631.33
2019-02-27T10:02:46.391Z,97627.31
2019-02-27T10:03:48.939Z,97631.58
2019-02-27T10:04:52.622Z,97626.11
2019-02-27T10:05:56.243Z,97627.92
2019-02-27T10:06:59.874Z,97626.23
2019-02-27T10:08:03.510Z,97620.52
2019-02-27T10:09:08.140Z,97624.66
2019-02-27T10:10:11.833Z,97616.27
2019-02-27T10:11:18.812Z,97631.34
2019-02-27T10:12:21.040Z,97619.45
2019-02-27T10:13:24.667Z,97619.38
2019-02-27T10:14:28.301Z,97625.52
2019-02-27T10:15:31.975Z,97624.66
2019-02-27T10:16:35.613Z,97624.53
2019-02-27T10:17:41.047Z,97627.06
2019-02-27T10:18:44.809Z,97622.94
2019-02-27T10:19:48.442Z,97627.92
2019-02-27T10:20:52.212Z,97632.01
2019-02-27T10:21:55.830Z,97633.89
2019-02-27T10:22:59.735Z,97628.04
2019-02-27T10:24:04.845Z,97634.69
2019-02-27T10:25:09.549Z,97627.70
2019-02-27T10:26:13.224Z,97626.97
2019-02-27T10:27:16.860Z,97632.07
2019-02-27T10:28:20.490Z,97632.19
2019-02-27T10:29:24.127Z,97623.58
2019-02-27T10:30:27.794Z,97619.55
2019-02-27T10:31:31.454Z,97623.94
2019-02-27T10:32:36.702Z,97629.89
2019-02-27T10:33:42.819Z,97622.72
2019-02-27T10:34:45.827Z,97627.95
2019-02-27T10:35:51.164Z,97623.69
2019-02-27T10:36:54.984Z,97624.68
2019-02-27T10:37:58.777Z,97623.11
2019-02-27T10:39:02.825Z,97623.66
2019-02-27T10:40:23.976Z,97614.75
2019-02-27T10:41:27.613Z,97617.97
2019-02-27T10:42:31.466Z,97613.81
2019-02-27T10:43:35.116Z,97617.68
2019-02-27T10:44:38.758Z,97613.74
2019-02-27T10:45:42.400Z,97623.09
2019-02-27T10:46:46.335Z,97608.85
2019-02-27T10:47:50.008Z,97608.47
2019-02-27T10:48:53.659Z,97604.09
2019-02-27T10:50:01.620Z,97612.09
2019-02-27T10:51:02.916Z,97608.16
2019-02-27T10:52:06.642Z,97595.37
2019-02-27T10:53:10.677Z,97601.52
2019-02-27T10:54:14.307Z,97604.44
2019-02-27T10:55:22.260Z,97601.27
2019-02-27T10:56:25.896Z,97592.48
2019-02-27T10:57:31.868Z,97598.99
2019-02-27T10:58:34.950Z,97597.75
2019-02-27T10:59:38.581Z,97592.84
2019-02-27T11:00:43.200Z,97601.29
2019-02-27T11:01:46.856Z,97592.33
2019-02-27T11:02:52.461Z,97592.02
2019-02-27T11:03:55.996Z,97589.73
2019-02-27T11:04:59.624Z,97588.12
2019-02-27T11:06:03.265Z,97586.16
2019-02-27T11:07:06.895Z,97582.41
2019-02-27T11:08:10.599Z,97586.21
2019-02-27T11:09:20.282Z,97584.23
2019-02-27T11:10:24.753Z,97589.99
2019-02-27T11:11:28.470Z,97586.08
2019-02-27T11:12:32.397Z,97577.23
2019-02-27T11:13:36.044Z,97580.58
2019-02-27T11:14:39.705Z,97582.89
2019-02-27T11:15:44.807Z,97582.89
2019-02-27T11:16:48.779Z,97579.13
2019-02-27T11:17:52.422Z,97567.45
2019-02-27T11:18:56.062Z,97567.45
2019-02-27T11:19:59.707Z,97562.61
2019-02-27T11:21:03.455Z,97569.56
2019-02-27T11:22:07.092Z,97563.41
2019-02-27T11:23:10.729Z,97558.07
2019-02-27T11:24:16.757Z,97564.13
2019-02-27T11:25:22.541Z,97554.42
2019-02-27T11:26:26.848Z,97550.59
2019-02-27T11:27:30.485Z,97556.45
2019-02-27T11:28:34.124Z,97555.23
2019-02-27T11:29:37.680Z,97550.03
2019-02-27T11:30:42.646Z,97554.66
2019-02-27T11:31:46.285Z,97549.11
2019-02-27T11:32:49.926Z,97548.70
2019-02-27T11:33:53.562Z,97548.70
2019-02-27T11:34:57.274Z,97548.14
2019-02-27T11:36:03.196Z,97546.80
2019-02-27T11:37:06.361Z,97546.80
2019-02-27T11:38:10.565Z,97556.58
2019-02-27T11:39:14.329Z,97550.42
2019-02-27T11:40:20.541Z,97540.78
2019-02-27T11:41:24.207Z,97553.02
2019-02-27T11:42:28.976Z,97553.02
2019-02-27T11:43:33.198Z,97540.64
2019-02-27T11:44:37.254Z,97541.97
2019-02-27T11:45:41.041Z,97540.81
2019-02-27T11:46:44.715Z,97540.81
2019-02-27T11:47:48.356Z,97542.34
2019-02-27T11:48:52.004Z,97542.34
2019-02-27T11:49:55.666Z,97535.19
2019-02-27T11:50:59.692Z,97542.39
2019-02-27T11:52:03.379Z,97536.04
2019-02-27T11:53:07.019Z,97534.69
2019-02-27T11:54:10.662Z,97540.92
2019-02-27T11:55:16.314Z,97535.54
2019-02-27T11:56:20.858Z,97538.98
2019-02-27T11:57:27.329Z,97542.27
2019-02-27T11:58:31.070Z,97548.61
2019-02-27T11:59:34.703Z,97539.72
2019-02-27T12:00:38.641Z,97531.81
2019-02-27T12:01:42.380Z,97531.81
2019-02-27T12:02:46.139Z,97530.19
2019-02-27T12:03:49.767Z,97539.16
2019-02-27T12:04:56.479Z,97529.53
2019-02-27T12:05:58.788Z,97529.53
2019-02-27T12:07:02.436Z,97519.44
2019-02-27T12:08:06.179Z,97530.14
2019-02-27T12:09:09.811Z,97525.63
2019-02-27T12:10:19.211Z,97528.70
2019-02-27T12:11:22.846Z,97538.26
2019-02-27T12:12:26.496Z,97523.92
2019-02-27T12:13:32.306Z,97523.92
2019-02-27T12:14:35.461Z,97529.30
2019-02-27T12:15:43.347Z,97529.77
2019-02-27T12:16:44.473Z,97541.52
2019-02-27T12:17:48.507Z,97541.52
2019-02-27T12:18:52.171Z,97536.63
2019-02-27T12:19:55.832Z,97537.88
2019-02-27T12:20:59.480Z,97537.88
2019-02-27T12:22:03.527Z,97551.41
2019-02-27T12:23:07.511Z,97541.83
2019-02-27T12:24:12.555Z,97541.83
2019-02-27T12:25:17.702Z,97538.58
2019-02-27T12:26:21.368Z,97538.58
2019-02-27T12:27:47.736Z,97534.00
2019-02-27T12:28:30.401Z,97534.00
2019-02-27T12:29:34.042Z,97528.61
2019-02-27T12:30:38.041Z,97528.61
2019-02-27T12:31:41.898Z,97537.75
2019-02-27T12:32:45.651Z,97525.89
2019-02-27T12:33:49.402Z,97525.89
2019-02-27T12:34:53.088Z,97533.61
2019-02-27T12:35:56.724Z,97533.16
2019-02-27T12:37:00.412Z,97531.66
2019-02-27T12:38:08.265Z,97535.80
2019-02-27T12:39:10.495Z,97525.85
2019-02-27T12:40:24.074Z,97521.91
2019-02-27T12:41:24.461Z,97524.70
2019-02-27T12:42:36.932Z,97546.39
2019-02-27T12:43:33.398Z,97525.13
2019-02-27T12:44:37.038Z,97530.28
2019-02-27T12:45:41.017Z,97533.83
2019-02-27T12:46:44.763Z,97528.50
2019-02-27T12:47:48.480Z,97528.50
2019-02-27T12:48:52.040Z,97538.19
2019-02-27T12:49:55.681Z,97543.47
2019-02-27T12:51:03.466Z,97543.47
2019-02-27T12:52:04.719Z,97537.55
2019-02-27T12:53:08.361Z,97531.02
2019-02-27T12:54:11.996Z,97531.02
2019-02-27T12:55:15.839Z,97528.39
2019-02-27T12:56:19.559Z,97529.50
2019-02-27T12:57:23.200Z,97532.56
2019-02-27T12:58:26.837Z,97535.63